Cochabamba, Bolivia
Current Conditions -  °F | °C
As of 8:00 AM on Friday 24 Oct 2014 (Local Time) from SLCB Reporting Station
Smoke Smoke  
Wind Chill: 63°   Ceiling: Unl
Heat Index: 63°   Visibility: 1.8mi
Dew Point: 48°   Wind: 0mph
Humidity: 59%   Direction: NA
Pressure: 30.33"   Gusts: NA
Location:  17.38°S, 66.17°W
Report Text: SLCB 241200Z 00000KT 3000SE FU FEW027 SCT080 17/09 Q1027
Loading
Personal Weather Stations






























Interactive Weather Map
Tropical Storm Tracking
New forecast layout! Learn more

10-Day Weather Forecast

Advertisements
Track Severe Weather on mobile